Ana Sayfa
METAR-TAF:

METAR-TAF

Havaalanları :

Stuttgart Municipal Airport

Stuttgart, Arkansas, Amerika Birleşik Devletleri

Enlem: 34-36N, Boylam: 091-34W, yükseklik: 68 m

Güncel hava durumu gözlemi

Rapor saat 18:56 UTC de 41 dakika önce yapıldı.
Rüzgar güneydan 8 kt
Sıcaklık 36°C
Nem 50%
Basınç 1014 hPa
4800 ft yükseklikte az bulutlu

METAR: KSGT 251856Z AUTO 19008KT FEW048 36/24 A2994 RMK AO2 SLP137 T03560239 PWINO RVRNO $

Saat: 14:37 (19:37 UTC)


TAF: eksik

4.000'den fazla havaalanı için hava durumu gözlemleri ve tahminleri (METAR ve TAF raporları).

Kullanılabilir istasyonlar harita üzerinde sarı ve kırmızı noktalarla gösterilir.

İstasyonun adını görmek için fareyi noktanın üzerinde gezdirin.

Sonrasında hava gözlem ve tahminlerini görmek için tıklayın.

Haritayı değiştirmek için: yaklaştırmak için siyah artı işaretli yeşil düğmeye ve uzaklaştırmak için de eksi işaretli düğmeye hızla tıklayın; bitişik haritalar için yeşil okları kullanın.


METAR-TAF: